Main page
METAR-TAF:

METAR-TAF

Airports :

Bangui M'Poko International Airport

Bangui, Central African Republic

latitude: 04-24N, longitude: 018-31E, elevation: 365 m

Current weather observation

The report was made 37 minutes ago, at 15:00 UTC
Wind 4 kt from the Northwest
Temperature 36°C
Humidity 22%
Pressure 1006 hPa
Visibility: 8000 m

METAR: FEFF 231500Z 32004KT 8000 NSC 36/11 Q1006 NOSIG

Time: 16:37 (15:37 UTC)

Forecast

The report was made 4 hours and 37 minutes ago, at 11:00 UTC
Forecast valid from 23 at 12 UTC to 24 at 18 UTC
Wind 6 kt from the North/Northwest
Visibility: 6000 m
Becoming
from 23 at 14 UTC to 23 at 16 UTC
Visibility: 2000 m
Becoming
from 23 at 20 UTC to 23 at 22 UTC
Visibility: 6000 m
Becoming
from 24 at 02 UTC to 24 at 04 UTC
Visibility: 4000 m
mist
Temporary
from 24 at 05 UTC to 24 at 07 UTC
Visibility: 2000 m
mist

TAF: FEFF 231100Z 2312/2418 34006KT 6000 NSC BECMG 2314/2316 2000 HZFU BECMG 2320/2322 6000 NSW BECMG 2402/2404 4000 BR TEMPO 2405/2407 2000 BR

Weather observations and forecasts of more than 4000 airports (METAR and TAF reports).

The available stations are represented by yellow and red dots on the map.

Hover mouse over dot to see the name of the station.

Then click to see weather observations and forecasts.

To change the map : click on the green buttons with a black cross to zoom in, on the green button with a dash to zoom out, or on the green arrows for adjacent maps.


METAR-TAF: